Pagrindinis puslapis
METAR-TAF:

METAR-TAF

Oro uostai :

Baza 71 Aeriană

Kimpija Turzis, Rumunija

platuma: 46-30-12N, ilguma: 023-53-07E, Aukštis: 324 m

Dabartinis oras

Ataskaita buvo paskelbta 1 valandą ir 22 minutes, ne 07:00 UTC
Vėjas 7 kt iš Pietų/Pietryčių
Temperatūra 18°C
Drėgmė 52%
Slėgis 1004 hPa
Matomumas 10 km arba daugiau
Išsisklaidę debesys ne aukštis 20000 ft

METAR: LRCT 160700Z 16007KT 9999 SCT200 18/08 Q1004 BLU BLU

Laikas: 11:22 (08:22 UTC)


TAF: trūkstamas

Orai ataskaitas ir orų prognozės (METAR, TAF).

turimą stotys yra geltonos ir raudonos taškus žemėlapyje.

Perkelti pele per norėdami pamatyti stoties vardą.

Tada spustelėkite, norėdami matyti oro stebėjimo ir prognozės.

Norėdami pakeisti žemėlapį: spustelėkite ant žalios mygtukų su juodo kryžiaus žemyn,; žalią mygtuką su brūkšneliu, jei norite nutolinti; arba žalių rodyklių gretimoms žemėlapius.


METAR-TAF: